createdAt,value
2023-03-03T00:01:08.585Z,12.43
2023-03-03T00:03:40.731Z,12.40
2023-03-03T00:06:10.826Z,12.32
2023-03-03T00:08:39.472Z,11.00
2023-03-03T00:11:07.977Z,11.73
2023-03-03T00:13:41.640Z,10.73
2023-03-03T00:16:15.525Z,11.07
2023-03-03T00:21:22.248Z,10.20
2023-03-03T00:23:50.786Z,11.73
2023-03-03T00:26:22.514Z,10.73
2023-03-03T00:28:51.514Z,11.13
2023-03-03T00:31:20.985Z,11.25
2023-03-03T00:33:57.337Z,10.93
2023-03-03T00:36:31.737Z,11.75
2023-03-03T00:39:12.043Z,10.52
2023-03-03T00:41:41.225Z,12.20
2023-03-03T00:44:31.558Z,12.13
2023-03-03T00:47:04.012Z,10.48
2023-03-03T00:49:32.289Z,11.23
2023-03-03T00:52:01.921Z,11.02
2023-03-03T00:54:30.199Z,10.85
2023-03-03T00:56:58.508Z,11.05
2023-03-03T00:59:26.783Z,10.10
2023-03-03T01:01:55.139Z,11.18
2023-03-03T01:04:23.493Z,11.23
2023-03-03T01:06:51.811Z,12.20
2023-03-03T01:09:21.574Z,10.18
2023-03-03T01:11:50.184Z,11.13
2023-03-03T01:14:18.667Z,11.48
2023-03-03T01:16:46.973Z,12.32
2023-03-03T01:19:15.693Z,10.88
2023-03-03T01:21:44.017Z,12.95
2023-03-03T01:24:12.319Z,11.27
2023-03-03T01:26:41.974Z,12.48
2023-03-03T01:29:10.309Z,11.93
2023-03-03T01:31:38.695Z,10.80
2023-03-03T01:34:07.269Z,11.38
2023-03-03T01:36:37.349Z,10.95
2023-03-03T01:39:05.840Z,11.57
2023-03-03T01:41:34.496Z,10.60
2023-03-03T01:44:04.441Z,11.45
2023-03-03T01:46:40.351Z,11.50
2023-03-03T01:49:09.662Z,10.90
2023-03-03T01:51:40.432Z,10.20
2023-03-03T01:54:12.397Z,11.23
2023-03-03T01:56:40.928Z,11.18
2023-03-03T01:59:13.163Z,11.55
2023-03-03T02:01:42.237Z,11.43
2023-03-03T02:04:10.961Z,12.43
2023-03-03T02:06:42.159Z,11.95
2023-03-03T02:09:13.625Z,12.30
2023-03-03T02:11:44.056Z,11.75
2023-03-03T02:14:14.205Z,12.30
2023-03-03T02:16:42.681Z,10.88
2023-03-03T02:19:14.453Z,12.82
2023-03-03T02:21:42.764Z,10.68
2023-03-03T02:24:15.406Z,11.07
2023-03-03T02:26:47.385Z,11.52
2023-03-03T02:29:15.724Z,12.23
2023-03-03T02:31:44.165Z,11.65
2023-03-03T02:34:12.528Z,12.65
2023-03-03T02:36:41.452Z,12.00
2023-03-03T02:39:11.233Z,11.73
2023-03-03T02:41:42.565Z,12.18
2023-03-03T02:44:13.818Z,11.85
2023-03-03T02:46:42.709Z,12.63
2023-03-03T02:49:11.739Z,11.25
2023-03-03T02:51:40.460Z,12.25
2023-03-03T02:54:09.367Z,11.13
2023-03-03T02:56:38.136Z,12.57
2023-03-03T02:59:06.922Z,12.48
2023-03-03T03:01:37.355Z,12.48
2023-03-03T03:04:09.410Z,12.40
2023-03-03T03:06:43.841Z,12.32
2023-03-03T03:09:12.922Z,12.82
2023-03-03T03:11:41.564Z,12.80
2023-03-03T03:14:10.393Z,11.80
2023-03-03T03:16:40.064Z,12.30
2023-03-03T03:19:08.745Z,12.30
2023-03-03T03:21:37.228Z,12.40
2023-03-03T03:24:05.599Z,11.90
2023-03-03T03:26:33.911Z,13.43
2023-03-03T03:29:02.266Z,13.40
2023-03-03T03:31:30.610Z,12.82
2023-03-03T03:34:00.564Z,12.13
2023-03-03T03:36:29.090Z,12.70
2023-03-03T03:38:57.403Z,13.57
2023-03-03T03:41:25.728Z,11.85
2023-03-03T03:43:54.007Z,12.98
2023-03-03T03:46:22.496Z,12.50
2023-03-03T03:48:50.872Z,11.13
2023-03-03T03:51:20.529Z,11.57
2023-03-03T03:53:48.839Z,11.82
2023-03-03T03:56:18.236Z,12.07
2023-03-03T03:58:46.516Z,11.32
2023-03-03T04:01:14.864Z,11.57
2023-03-03T04:03:43.152Z,12.30
2023-03-03T04:06:11.448Z,12.07
2023-03-03T04:08:41.080Z,12.60
2023-03-03T04:11:09.405Z,14.45
2023-03-03T04:13:37.705Z,18.35
2023-03-03T04:16:06.195Z,15.48
2023-03-03T04:18:34.496Z,18.45
2023-03-03T04:21:02.799Z,18.15
2023-03-03T04:23:31.076Z,15.02
2023-03-03T04:26:00.728Z,13.65
2023-03-03T04:28:29.017Z,12.57
2023-03-03T04:30:57.363Z,12.32
2023-03-03T04:33:25.694Z,12.40
2023-03-03T04:35:54.075Z,12.73
2023-03-03T04:38:22.392Z,14.15
2023-03-03T04:40:50.715Z,14.00
2023-03-03T04:43:21.209Z,14.05
2023-03-03T04:45:49.558Z,12.20
2023-03-03T04:48:17.881Z,13.00
2023-03-03T04:50:46.822Z,13.55
2023-03-03T04:53:15.116Z,12.00
2023-03-03T04:55:43.413Z,12.60
2023-03-03T04:58:11.758Z,12.93
2023-03-03T05:00:41.378Z,12.43
2023-03-03T05:03:10.144Z,12.77
2023-03-03T05:05:38.415Z,13.20
2023-03-03T05:08:06.965Z,12.50
2023-03-03T05:10:35.637Z,14.02
2023-03-03T05:13:04.795Z,12.00
2023-03-03T05:15:33.324Z,13.23
2023-03-03T05:18:02.978Z,12.15
2023-03-03T05:20:31.310Z,12.13
2023-03-03T05:23:01.636Z,12.73
2023-03-03T05:25:29.962Z,12.63
2023-03-03T05:27:58.257Z,12.75
2023-03-03T05:30:26.568Z,13.18
2023-03-03T05:32:54.915Z,12.32
2023-03-03T05:35:24.690Z,13.68
2023-03-03T05:37:53.240Z,12.80
2023-03-03T05:40:21.515Z,12.70
2023-03-03T05:42:49.950Z,13.63
2023-03-03T05:45:20.406Z,13.00
2023-03-03T05:47:48.859Z,13.45
2023-03-03T05:50:17.269Z,13.10
2023-03-03T05:52:46.973Z,13.00
2023-03-03T05:55:15.281Z,13.40
2023-03-03T05:57:43.604Z,13.40
2023-03-03T06:00:12.654Z,14.60
2023-03-03T06:02:41.106Z,13.48
2023-03-03T06:05:09.876Z,13.52
2023-03-03T06:07:38.168Z,17.08
2023-03-03T06:10:11.362Z,18.92
2023-03-03T06:12:41.162Z,15.50
2023-03-03T06:15:10.554Z,15.00
2023-03-03T06:17:38.877Z,14.13
2023-03-03T06:20:08.062Z,16.17
2023-03-03T06:22:36.421Z,14.95
2023-03-03T06:25:04.862Z,14.82
2023-03-03T06:27:34.525Z,14.70
2023-03-03T06:30:02.855Z,14.75
2023-03-03T06:32:31.313Z,15.02
2023-03-03T06:34:59.641Z,15.52
2023-03-03T06:37:27.967Z,14.93
2023-03-03T06:39:56.301Z,14.77
2023-03-03T06:42:24.923Z,15.60
2023-03-03T06:44:54.591Z,17.50
2023-03-03T06:47:23.046Z,17.80
2023-03-03T06:49:51.342Z,18.55
2023-03-03T06:52:21.241Z,16.20
2023-03-03T06:54:49.783Z,15.38
2023-03-03T06:57:19.364Z,14.35
2023-03-03T06:59:49.036Z,15.02
2023-03-03T07:02:19.280Z,14.77
2023-03-03T07:04:48.035Z,14.52
2023-03-03T07:07:18.452Z,14.70
2023-03-03T07:09:47.850Z,14.85
2023-03-03T07:12:18.164Z,15.60
2023-03-03T07:14:50.746Z,19.88
2023-03-03T07:17:22.321Z,26.77
2023-03-03T07:19:50.898Z,22.15
2023-03-03T07:22:19.873Z,22.60
2023-03-03T07:24:51.851Z,20.85
2023-03-03T07:27:24.920Z,19.80
2023-03-03T07:29:54.051Z,21.85
2023-03-03T07:32:29.058Z,23.02
2023-03-03T07:34:58.107Z,25.15
2023-03-03T07:37:31.089Z,27.33
2023-03-03T07:39:59.611Z,25.92
2023-03-03T07:42:28.807Z,22.92
2023-03-03T07:44:58.265Z,22.35
2023-03-03T07:47:29.559Z,21.38
2023-03-03T07:49:58.733Z,21.30
2023-03-03T07:52:28.688Z,21.90
2023-03-03T07:54:57.955Z,24.90
2023-03-03T07:57:28.021Z,22.00
2023-03-03T07:59:57.347Z,20.70
2023-03-03T08:02:36.540Z,20.52
2023-03-03T08:05:23.045Z,21.38
2023-03-03T08:07:51.757Z,22.67
2023-03-03T08:10:32.132Z,21.48
2023-03-03T08:13:02.246Z,20.13
2023-03-03T08:15:33.295Z,19.88
2023-03-03T08:18:05.294Z,21.55
2023-03-03T08:20:41.198Z,20.70
2023-03-03T08:23:09.515Z,20.58
2023-03-03T08:25:37.840Z,19.67
2023-03-03T08:28:06.357Z,21.00
2023-03-03T08:30:34.657Z,19.85
2023-03-03T08:33:04.473Z,19.95
2023-03-03T08:35:32.895Z,18.70
2023-03-03T08:38:01.243Z,19.98
2023-03-03T08:40:29.632Z,19.63
2023-03-03T08:42:58.600Z,22.45
2023-03-03T08:45:27.270Z,19.95
2023-03-03T08:47:55.656Z,19.45
2023-03-03T08:50:25.306Z,20.00
2023-03-03T08:52:53.821Z,20.15
2023-03-03T08:55:22.142Z,20.02
2023-03-03T08:57:50.418Z,20.23
2023-03-03T09:00:19.614Z,19.98
2023-03-03T09:02:48.223Z,16.67
2023-03-03T09:05:17.338Z,17.50
2023-03-03T09:07:47.979Z,19.33
2023-03-03T09:10:17.428Z,17.02
2023-03-03T09:12:48.332Z,19.80
2023-03-03T09:15:18.993Z,19.27
2023-03-03T09:17:47.316Z,19.13
2023-03-03T09:20:27.040Z,19.25
2023-03-03T09:22:57.149Z,17.05
2023-03-03T09:25:28.408Z,18.63
2023-03-03T09:27:56.732Z,18.30
2023-03-03T09:30:36.368Z,19.73
2023-03-03T09:33:18.693Z,18.75
2023-03-03T09:35:48.674Z,19.20
2023-03-03T09:38:24.449Z,18.23
2023-03-03T09:40:56.895Z,17.90
2023-03-03T09:43:33.003Z,20.20
2023-03-03T09:46:05.090Z,18.60
2023-03-03T09:48:44.160Z,19.00
2023-03-03T09:51:19.547Z,17.73
2023-03-03T09:54:05.498Z,17.58
2023-03-03T09:56:36.270Z,18.90
2023-03-03T09:59:19.456Z,18.48
2023-03-03T10:02:01.858Z,18.80
2023-03-03T10:04:42.152Z,19.23
2023-03-03T10:07:17.974Z,18.40
2023-03-03T10:09:50.673Z,17.75
2023-03-03T10:12:24.037Z,17.88
2023-03-03T10:15:08.926Z,17.40
2023-03-03T10:17:47.017Z,18.42
2023-03-03T10:20:22.423Z,19.15
2023-03-03T10:22:53.903Z,19.02
2023-03-03T10:25:30.521Z,17.75
2023-03-03T10:28:17.499Z,17.55
2023-03-03T10:31:04.775Z,18.95
2023-03-03T10:33:40.129Z,16.42
2023-03-03T10:36:13.186Z,17.90
2023-03-03T10:38:54.682Z,17.43
2023-03-03T10:41:37.867Z,15.68
2023-03-03T10:44:15.550Z,16.20
2023-03-03T10:46:55.905Z,16.65
2023-03-03T10:49:29.918Z,16.02
2023-03-03T10:52:07.598Z,15.52
2023-03-03T10:54:46.534Z,15.30
2023-03-03T10:57:19.929Z,15.32
2023-03-03T11:00:08.873Z,15.68
2023-03-03T11:02:44.632Z,15.68
2023-03-03T11:05:23.765Z,16.08
2023-03-03T11:07:54.016Z,14.48
2023-03-03T11:10:41.984Z,16.42
2023-03-03T11:13:16.774Z,14.52
2023-03-03T11:16:07.707Z,15.48
2023-03-03T11:18:43.233Z,13.73
2023-03-03T11:21:15.414Z,13.50
2023-03-03T11:23:54.280Z,14.50
2023-03-03T11:26:32.122Z,13.52
2023-03-03T11:29:13.092Z,15.32
2023-03-03T11:31:45.853Z,13.05
2023-03-03T11:34:21.849Z,13.07
2023-03-03T11:36:51.565Z,13.40
2023-03-03T11:39:20.511Z,14.07
2023-03-03T11:41:56.207Z,12.40
2023-03-03T11:44:29.359Z,14.15
2023-03-03T11:47:00.299Z,12.57
2023-03-03T11:49:32.005Z,12.73
2023-03-03T11:52:05.132Z,11.52
2023-03-03T11:54:36.703Z,12.45
2023-03-03T11:57:12.924Z,12.23
2023-03-03T11:59:49.803Z,12.18
2023-03-03T12:02:25.222Z,12.43
2023-03-03T12:04:57.066Z,12.88
2023-03-03T12:07:30.483Z,12.35
2023-03-03T12:10:04.703Z,12.68
2023-03-03T12:12:35.226Z,12.38
2023-03-03T12:15:11.137Z,12.48
2023-03-03T12:17:45.573Z,12.48
2023-03-03T12:20:18.735Z,12.20
2023-03-03T12:23:05.719Z,11.82
2023-03-03T12:25:37.416Z,11.65
2023-03-03T12:28:08.318Z,11.60
2023-03-03T12:30:42.414Z,10.85
2023-03-03T12:33:21.521Z,12.25
2023-03-03T12:35:56.781Z,12.10
2023-03-03T12:38:28.625Z,11.35
2023-03-03T12:41:00.420Z,10.75
2023-03-03T12:43:37.099Z,10.63
2023-03-03T12:46:09.053Z,10.90
2023-03-03T12:48:42.392Z,11.38
2023-03-03T12:51:16.981Z,9.98
2023-03-03T12:53:51.601Z,10.70
2023-03-03T12:56:22.824Z,10.90
2023-03-03T12:58:55.813Z,10.10
2023-03-03T13:01:31.480Z,11.23
2023-03-03T13:04:05.285Z,10.55
2023-03-03T13:09:08.914Z,9.63
2023-03-03T13:11:43.703Z,9.68
2023-03-03T13:14:18.848Z,10.07
2023-03-03T13:16:51.483Z,9.45
2023-03-03T13:19:22.451Z,10.10
2023-03-03T13:21:53.588Z,9.52
2023-03-03T13:24:25.811Z,7.85
2023-03-03T13:26:57.892Z,9.13
2023-03-03T13:29:28.730Z,8.93
2023-03-03T13:31:57.878Z,9.13
2023-03-03T13:34:34.116Z,8.95
2023-03-03T13:37:05.930Z,8.82
2023-03-03T13:39:40.229Z,8.70
2023-03-03T13:42:16.644Z,8.77
2023-03-03T13:44:45.871Z,8.10
2023-03-03T13:47:18.006Z,8.40
2023-03-03T13:49:53.828Z,8.90
2023-03-03T13:52:23.179Z,8.23
2023-03-03T13:55:06.780Z,8.70
2023-03-03T13:57:43.728Z,8.35
2023-03-03T14:00:21.959Z,6.47
2023-03-03T14:02:55.612Z,7.82
2023-03-03T14:05:27.849Z,8.27
2023-03-03T14:07:59.453Z,8.32
2023-03-03T14:10:33.272Z,7.50
2023-03-03T14:15:36.988Z,8.32
2023-03-03T14:18:10.901Z,7.63
2023-03-03T14:20:44.377Z,7.43
2023-03-03T14:23:19.140Z,7.72
2023-03-03T14:25:57.179Z,6.72
2023-03-03T14:28:27.103Z,8.05
2023-03-03T14:30:56.485Z,7.53
2023-03-03T14:33:29.618Z,8.15
2023-03-03T14:36:12.159Z,9.05
2023-03-03T14:38:42.623Z,7.47
2023-03-03T14:41:22.950Z,8.25
2023-03-03T14:44:01.978Z,9.23
2023-03-03T14:46:34.962Z,8.00
2023-03-03T14:49:06.176Z,8.98
2023-03-03T14:51:40.684Z,9.60
2023-03-03T14:54:10.649Z,9.18
2023-03-03T14:56:41.164Z,8.20
2023-03-03T14:59:18.338Z,9.25
2023-03-03T15:01:46.839Z,9.05
2023-03-03T15:04:25.973Z,8.95
2023-03-03T15:06:55.397Z,8.95
2023-03-03T15:09:35.753Z,8.90
2023-03-03T15:12:19.204Z,8.95
2023-03-03T15:14:48.480Z,11.05
2023-03-03T15:17:27.631Z,9.32
2023-03-03T15:20:06.331Z,10.65
2023-03-03T15:22:48.409Z,9.20
2023-03-03T15:25:20.933Z,9.55
2023-03-03T15:27:52.698Z,10.07
2023-03-03T15:30:25.693Z,9.20
2023-03-03T15:32:59.362Z,9.50
2023-03-03T15:37:58.654Z,9.57
2023-03-03T15:40:37.866Z,10.25
2023-03-03T15:43:17.331Z,9.65
2023-03-03T15:45:52.757Z,9.85
2023-03-03T15:48:28.985Z,9.55
2023-03-03T15:51:01.643Z,10.98
2023-03-03T15:53:41.465Z,10.35
2023-03-03T15:56:24.117Z,10.05
2023-03-03T15:59:24.189Z,8.80
2023-03-03T16:01:59.585Z,9.25
2023-03-03T16:04:31.125Z,7.57
2023-03-03T16:07:05.114Z,7.70
2023-03-03T16:09:44.022Z,7.20
2023-03-03T16:12:20.508Z,7.35
2023-03-03T16:15:31.582Z,7.68
2023-03-03T16:18:21.785Z,7.55
2023-03-03T16:21:02.531Z,6.78
2023-03-03T16:23:37.569Z,6.25
2023-03-03T16:26:08.524Z,7.05
2023-03-03T16:28:51.696Z,6.25
2023-03-03T16:31:25.983Z,6.83
2023-03-03T16:33:58.705Z,6.95
2023-03-03T16:36:32.907Z,6.60
2023-03-03T16:39:04.566Z,6.30
2023-03-03T16:41:39.828Z,12.20
2023-03-03T16:44:14.649Z,9.23
2023-03-03T16:46:44.355Z,8.23
2023-03-03T16:49:18.138Z,8.88
2023-03-03T16:54:18.128Z,7.05
2023-03-03T16:56:50.544Z,7.68
2023-03-03T16:59:24.061Z,9.48
2023-03-03T17:01:57.843Z,8.57
2023-03-03T17:06:56.614Z,6.53
2023-03-03T17:09:33.008Z,7.57
2023-03-03T17:12:06.853Z,7.85
2023-03-03T17:14:45.960Z,7.97
2023-03-03T17:17:19.810Z,13.27
2023-03-03T17:19:57.335Z,7.90
2023-03-03T17:22:31.499Z,10.43
2023-03-03T17:25:07.443Z,14.15
2023-03-03T17:27:40.117Z,17.98
2023-03-03T17:30:15.836Z,21.13
2023-03-03T17:32:52.835Z,15.60
2023-03-03T17:35:26.991Z,14.52
2023-03-03T17:38:00.938Z,12.93
2023-03-03T17:40:40.408Z,12.20
2023-03-03T17:43:12.874Z,10.18
2023-03-03T17:45:42.943Z,8.45
2023-03-03T17:48:19.812Z,8.32
2023-03-03T17:51:01.910Z,8.55
2023-03-03T17:53:43.521Z,7.88
2023-03-03T17:56:16.548Z,8.63
2023-03-03T17:58:52.886Z,7.85
2023-03-03T18:01:29.416Z,8.75
2023-03-03T18:04:03.762Z,8.93
2023-03-03T18:06:52.125Z,7.90
2023-03-03T18:09:30.679Z,8.27
2023-03-03T18:12:01.922Z,7.45
2023-03-03T18:14:42.044Z,7.53
2023-03-03T18:17:19.989Z,8.27
2023-03-03T18:20:15.017Z,7.63
2023-03-03T18:22:44.219Z,9.98
2023-03-03T18:25:15.239Z,10.52
2023-03-03T18:27:43.963Z,9.30
2023-03-03T18:30:25.037Z,9.23
2023-03-03T18:33:17.458Z,9.27
2023-03-03T18:35:46.677Z,9.88
2023-03-03T18:38:34.621Z,9.13
2023-03-03T18:41:06.496Z,10.65
2023-03-03T18:43:58.844Z,16.27
2023-03-03T18:46:45.979Z,12.70
2023-03-03T18:49:14.569Z,8.35
2023-03-03T18:51:53.948Z,11.02
2023-03-03T18:54:31.041Z,10.38
2023-03-03T18:57:18.358Z,10.65
2023-03-03T19:00:02.973Z,8.75
2023-03-03T19:02:36.146Z,8.43
2023-03-03T19:05:10.445Z,8.30
2023-03-03T19:07:59.120Z,8.95
2023-03-03T19:10:55.985Z,8.27
2023-03-03T19:13:41.694Z,8.20
2023-03-03T19:16:11.180Z,7.70
2023-03-03T19:18:55.974Z,7.55
2023-03-03T19:21:27.014Z,7.45
2023-03-03T19:23:59.919Z,7.55
2023-03-03T19:27:02.567Z,7.97
2023-03-03T19:29:48.509Z,7.28
2023-03-03T19:32:28.409Z,7.60
2023-03-03T19:35:02.372Z,8.02
2023-03-03T19:40:03.906Z,8.63
2023-03-03T19:42:44.868Z,8.77
2023-03-03T19:45:23.928Z,8.02
2023-03-03T19:47:56.260Z,8.50
2023-03-03T19:50:34.754Z,8.40
2023-03-03T19:53:06.762Z,7.13
2023-03-03T19:55:41.192Z,7.80
2023-03-03T19:58:18.418Z,8.23
2023-03-03T20:00:48.856Z,8.10
2023-03-03T20:03:35.022Z,7.75
2023-03-03T20:06:11.842Z,8.23
2023-03-03T20:08:43.392Z,7.25
2023-03-03T20:11:15.567Z,8.80
2023-03-03T20:13:50.303Z,7.90
2023-03-03T20:16:24.356Z,7.40
2023-03-03T20:19:18.808Z,7.65
2023-03-03T20:24:30.221Z,7.25
2023-03-03T20:27:01.733Z,7.30
2023-03-03T20:29:39.025Z,7.10
2023-03-03T20:32:12.090Z,6.82
2023-03-03T20:34:48.270Z,6.88
2023-03-03T20:37:20.575Z,6.95
2023-03-03T20:39:59.678Z,7.32
2023-03-03T20:42:31.713Z,6.85
2023-03-03T20:45:09.750Z,7.30
2023-03-03T20:47:42.405Z,7.13
2023-03-03T20:50:28.682Z,6.32
2023-03-03T20:53:03.212Z,6.18
2023-03-03T20:55:36.552Z,6.18
2023-03-03T20:58:18.026Z,6.18
2023-03-03T21:00:51.542Z,7.40
2023-03-03T21:03:21.824Z,5.90
2023-03-03T21:05:59.070Z,6.28
2023-03-03T21:08:45.385Z,6.03
2023-03-03T21:11:14.813Z,11.93
2023-03-03T21:13:45.745Z,17.92
2023-03-03T21:16:18.108Z,19.25
2023-03-03T21:18:57.836Z,16.60
2023-03-03T21:21:27.786Z,15.77
2023-03-03T21:23:56.192Z,13.10
2023-03-03T21:26:43.296Z,7.90
2023-03-03T21:29:17.544Z,7.35
2023-03-03T21:31:46.399Z,8.48
2023-03-03T21:34:25.037Z,7.75
2023-03-03T21:36:55.378Z,7.10
2023-03-03T21:39:25.785Z,6.85
2023-03-03T21:41:55.466Z,7.68
2023-03-03T21:44:34.659Z,7.97
2023-03-03T21:47:03.171Z,8.75
2023-03-03T21:49:31.594Z,9.18
2023-03-03T21:52:03.737Z,8.15
2023-03-03T21:54:32.049Z,6.40
2023-03-03T21:57:00.428Z,7.22
2023-03-03T21:59:28.733Z,8.38
2023-03-03T22:01:57.122Z,7.15
2023-03-03T22:04:25.671Z,7.28
2023-03-03T22:06:54.067Z,7.13
2023-03-03T22:09:23.863Z,7.82
2023-03-03T22:11:52.266Z,10.07
2023-03-03T22:14:20.615Z,18.08
2023-03-03T22:16:48.923Z,27.13
2023-03-03T22:19:17.248Z,21.10
2023-03-03T22:21:46.728Z,17.85
2023-03-03T22:24:15.427Z,15.07
2023-03-03T22:26:45.270Z,9.82
2023-03-03T22:29:16.463Z,7.88
2023-03-03T22:31:44.990Z,7.78
2023-03-03T22:34:13.551Z,7.22
2023-03-03T22:36:41.941Z,6.85
2023-03-03T22:39:28.189Z,6.93
2023-03-03T22:41:57.999Z,11.65
2023-03-03T22:44:26.374Z,19.65
2023-03-03T22:46:54.826Z,26.60
2023-03-03T22:49:23.235Z,22.55
2023-03-03T22:51:54.568Z,27.92
2023-03-03T22:54:22.942Z,31.27
2023-03-03T22:56:51.287Z,25.02
2023-03-03T22:59:21.049Z,16.40
2023-03-03T23:01:49.388Z,12.90
2023-03-03T23:04:17.770Z,11.35
2023-03-03T23:06:46.412Z,11.75
2023-03-03T23:09:18.671Z,13.80
2023-03-03T23:11:47.069Z,11.48
2023-03-03T23:14:15.545Z,11.98
2023-03-03T23:16:47.862Z,10.60
2023-03-03T23:19:19.047Z,11.70
2023-03-03T23:21:47.497Z,8.98
2023-03-03T23:24:22.119Z,9.30
2023-03-03T23:26:56.771Z,8.80
2023-03-03T23:29:31.623Z,8.90
2023-03-03T23:32:01.267Z,10.05
2023-03-03T23:34:29.581Z,9.45
2023-03-03T23:36:57.898Z,9.25
2023-03-03T23:39:26.292Z,7.07
2023-03-03T23:41:54.590Z,6.70
2023-03-03T23:44:23.129Z,6.25
2023-03-03T23:46:51.490Z,6.20
2023-03-03T23:49:21.126Z,6.43
2023-03-03T23:51:49.458Z,5.80
2023-03-03T23:54:17.782Z,7.00
2023-03-03T23:56:46.111Z,6.90
2023-03-03T23:59:14.447Z,7.90
